createdAt,value
2024-01-18T00:00:36.268Z,3.88
2024-01-18T00:03:03.842Z,4.30
2024-01-18T00:05:31.085Z,3.70
2024-01-18T00:07:58.183Z,4.90
2024-01-18T00:10:28.719Z,4.43
2024-01-18T00:12:56.167Z,4.00
2024-01-18T00:15:23.720Z,3.55
2024-01-18T00:17:51.226Z,3.70
2024-01-18T00:20:18.569Z,3.13
2024-01-18T00:22:45.659Z,3.45
2024-01-18T00:25:20.715Z,3.15
2024-01-18T00:27:47.816Z,3.25
2024-01-18T00:30:16.696Z,2.90
2024-01-18T00:32:43.925Z,2.90
2024-01-18T00:35:11.432Z,3.10
2024-01-18T00:37:38.656Z,2.80
2024-01-18T00:40:08.023Z,3.25
2024-01-18T00:42:35.286Z,3.05
2024-01-18T00:45:02.523Z,3.30
2024-01-18T00:47:29.903Z,3.95
2024-01-18T00:49:57.130Z,3.47
2024-01-18T00:52:24.203Z,3.58
2024-01-18T00:54:51.450Z,3.22
2024-01-18T00:57:18.558Z,3.30
2024-01-18T00:59:45.795Z,4.03
2024-01-18T01:02:12.901Z,3.88
2024-01-18T01:04:40.101Z,3.45
2024-01-18T01:07:07.206Z,3.80
2024-01-18T01:09:34.425Z,3.57
2024-01-18T01:12:01.710Z,4.00
2024-01-18T01:14:28.933Z,3.83
2024-01-18T01:16:56.125Z,3.85
2024-01-18T01:19:23.310Z,2.72
2024-01-18T01:21:50.407Z,3.57
2024-01-18T01:24:17.602Z,3.40
2024-01-18T01:26:44.705Z,3.38
2024-01-18T01:29:12.644Z,4.47
2024-01-18T01:31:39.890Z,4.38
2024-01-18T01:34:07.097Z,5.10
2024-01-18T01:36:34.393Z,4.30
2024-01-18T01:39:01.946Z,4.90
2024-01-18T01:41:29.228Z,5.10
2024-01-18T01:44:00.045Z,4.60
2024-01-18T01:46:27.852Z,4.87
2024-01-18T01:49:03.453Z,4.72
2024-01-18T01:51:34.154Z,4.88
2024-01-18T01:54:03.775Z,4.88
2024-01-18T01:56:32.003Z,4.50
2024-01-18T01:58:59.135Z,4.33
2024-01-18T02:01:26.387Z,4.75
2024-01-18T02:03:53.800Z,5.00
2024-01-18T02:06:21.049Z,5.65
2024-01-18T02:08:48.246Z,5.85
2024-01-18T02:11:15.884Z,5.60
2024-01-18T02:13:43.484Z,4.97
2024-01-18T02:16:10.884Z,5.30
2024-01-18T02:18:38.160Z,5.40
2024-01-18T02:21:08.870Z,5.78
2024-01-18T02:23:37.788Z,5.33
2024-01-18T02:26:05.112Z,5.78
2024-01-18T02:28:32.241Z,5.32
2024-01-18T02:30:59.389Z,4.80
2024-01-18T02:33:26.587Z,4.97
2024-01-18T02:35:53.901Z,5.10
2024-01-18T02:38:21.265Z,5.75
2024-01-18T02:40:48.642Z,5.20
2024-01-18T02:43:15.757Z,5.25
2024-01-18T02:45:43.001Z,5.55
2024-01-18T02:48:10.321Z,5.70
2024-01-18T02:50:41.538Z,5.75
2024-01-18T02:53:08.691Z,5.30
2024-01-18T02:55:35.837Z,5.88
2024-01-18T02:58:06.266Z,5.32
2024-01-18T03:00:33.612Z,5.00
2024-01-18T03:03:00.904Z,5.78
2024-01-18T03:05:28.046Z,4.47
2024-01-18T03:07:55.671Z,5.30
2024-01-18T03:10:23.226Z,4.05
2024-01-18T03:12:50.371Z,4.17
2024-01-18T03:15:17.648Z,4.18
2024-01-18T03:17:44.842Z,4.65
2024-01-18T03:20:12.025Z,4.32
2024-01-18T03:22:40.306Z,5.60
2024-01-18T03:25:07.950Z,5.50
2024-01-18T03:27:37.560Z,5.00
2024-01-18T03:30:05.280Z,4.72
2024-01-18T03:32:32.464Z,5.43
2024-01-18T03:35:00.049Z,5.60
2024-01-18T03:37:27.371Z,5.17
2024-01-18T03:39:54.479Z,6.80
2024-01-18T03:42:21.639Z,6.32
2024-01-18T03:44:48.892Z,6.18
2024-01-18T03:47:16.162Z,7.60
2024-01-18T03:49:44.647Z,5.73
2024-01-18T03:52:13.239Z,6.80
2024-01-18T03:54:40.908Z,6.32
2024-01-18T03:57:08.078Z,7.55
2024-01-18T03:59:35.509Z,6.00
2024-01-18T04:02:02.623Z,6.67
2024-01-18T04:04:29.897Z,6.18
2024-01-18T04:06:57.170Z,6.60
2024-01-18T04:09:24.422Z,6.80
2024-01-18T04:11:51.603Z,6.25
2024-01-18T04:14:19.026Z,6.57
2024-01-18T04:16:46.146Z,7.00
2024-01-18T04:19:13.420Z,8.20
2024-01-18T04:21:40.662Z,6.80
2024-01-18T04:24:07.886Z,6.82
2024-01-18T04:26:35.602Z,6.97
2024-01-18T04:29:03.503Z,6.90
2024-01-18T04:31:30.612Z,6.28
2024-01-18T04:33:57.827Z,6.80
2024-01-18T04:36:25.056Z,5.88
2024-01-18T04:38:52.826Z,6.77
2024-01-18T04:41:20.037Z,6.30
2024-01-18T04:43:47.160Z,7.85
2024-01-18T04:46:14.309Z,7.45
2024-01-18T04:48:41.873Z,6.07
2024-01-18T04:51:09.056Z,7.40
2024-01-18T04:53:36.234Z,6.78
2024-01-18T04:56:03.503Z,6.75
2024-01-18T04:58:30.650Z,7.60
2024-01-18T05:00:57.958Z,6.72
2024-01-18T05:03:26.395Z,7.20
2024-01-18T05:05:54.008Z,6.80
2024-01-18T05:08:21.780Z,7.15
2024-01-18T05:10:49.064Z,7.70
2024-01-18T05:13:16.298Z,7.28
2024-01-18T05:15:43.439Z,7.17
2024-01-18T05:18:10.692Z,7.68
2024-01-18T05:20:46.372Z,5.78
2024-01-18T05:23:13.484Z,7.30
2024-01-18T05:25:40.573Z,7.55
2024-01-18T05:28:07.868Z,6.80
2024-01-18T05:30:35.104Z,6.00
2024-01-18T05:33:02.444Z,5.00
2024-01-18T05:35:48.146Z,4.50
2024-01-18T05:38:27.624Z,4.18
2024-01-18T05:40:54.886Z,4.13
2024-01-18T05:43:22.122Z,4.38
2024-01-18T05:45:49.432Z,4.45
2024-01-18T05:48:16.657Z,3.70
2024-01-18T05:50:43.884Z,4.65
2024-01-18T05:53:10.998Z,4.20
2024-01-18T05:55:38.348Z,4.25
2024-01-18T05:58:05.477Z,4.60
2024-01-18T06:00:32.958Z,4.80
2024-01-18T06:03:00.182Z,4.35
2024-01-18T06:05:27.914Z,5.73
2024-01-18T06:07:55.057Z,4.45
2024-01-18T06:10:22.682Z,4.72
2024-01-18T06:12:49.797Z,4.78
2024-01-18T06:15:19.615Z,4.95
2024-01-18T06:17:46.773Z,4.50
2024-01-18T06:20:16.218Z,4.93
2024-01-18T06:22:43.695Z,5.20
2024-01-18T06:25:10.921Z,4.60
2024-01-18T06:27:38.026Z,5.40
2024-01-18T06:30:11.737Z,6.37
2024-01-18T06:32:39.191Z,5.53
2024-01-18T06:35:06.657Z,7.70
2024-01-18T06:37:34.256Z,7.70
2024-01-18T06:40:01.428Z,7.00
2024-01-18T06:42:28.655Z,7.37
2024-01-18T06:44:55.766Z,7.47
2024-01-18T06:47:22.926Z,6.78
2024-01-18T06:49:50.255Z,5.97
2024-01-18T06:52:17.786Z,7.32
2024-01-18T06:54:45.251Z,6.80
2024-01-18T06:57:12.562Z,7.07
2024-01-18T06:59:49.190Z,7.93
2024-01-18T07:02:16.373Z,7.90
2024-01-18T07:04:44.970Z,7.93
2024-01-18T07:07:12.181Z,7.47
2024-01-18T07:09:39.361Z,8.07
2024-01-18T07:12:07.158Z,8.13
2024-01-18T07:14:34.991Z,6.90
2024-01-18T07:17:02.866Z,7.88
2024-01-18T07:19:30.272Z,7.77
2024-01-18T07:21:57.513Z,7.40
2024-01-18T07:24:27.715Z,8.70
2024-01-18T07:26:54.824Z,8.95
2024-01-18T07:29:21.951Z,8.27
2024-01-18T07:31:49.031Z,7.73
2024-01-18T07:34:17.620Z,7.72
2024-01-18T07:36:44.986Z,7.43
2024-01-18T07:39:12.244Z,7.18
2024-01-18T07:41:39.374Z,7.85
2024-01-18T07:44:06.584Z,8.53
2024-01-18T07:46:33.884Z,8.70
2024-01-18T07:49:02.792Z,8.32
2024-01-18T07:51:30.889Z,9.82
2024-01-18T07:53:58.264Z,9.68
2024-01-18T07:56:25.389Z,7.83
2024-01-18T07:58:52.606Z,7.93
2024-01-18T08:01:20.205Z,7.68
2024-01-18T08:03:47.519Z,7.80
2024-01-18T08:06:14.890Z,7.05
2024-01-18T08:08:42.079Z,6.63
2024-01-18T08:11:13.995Z,7.88
2024-01-18T08:13:41.902Z,8.20
2024-01-18T08:16:09.939Z,7.63
2024-01-18T08:18:37.845Z,7.15
2024-01-18T08:21:07.464Z,8.30
2024-01-18T08:23:36.989Z,7.57
2024-01-18T08:26:04.174Z,7.93
2024-01-18T08:28:31.265Z,6.55
2024-01-18T08:30:59.213Z,6.70
2024-01-18T08:33:26.412Z,5.20
2024-01-18T08:35:53.507Z,4.95
2024-01-18T08:38:22.255Z,5.25
2024-01-18T08:40:49.541Z,5.07
2024-01-18T08:43:16.800Z,6.05
2024-01-18T08:45:44.128Z,5.40
2024-01-18T08:48:11.757Z,5.88
2024-01-18T08:50:39.324Z,5.38
2024-01-18T08:53:08.055Z,6.55
2024-01-18T08:55:39.385Z,6.10
2024-01-18T08:58:07.933Z,5.40
2024-01-18T09:00:35.674Z,5.65
2024-01-18T09:03:02.884Z,6.25
2024-01-18T09:05:30.855Z,6.00
2024-01-18T09:07:59.483Z,6.13
2024-01-18T09:10:27.652Z,7.23
2024-01-18T09:12:54.898Z,6.63
2024-01-18T09:15:23.324Z,7.82
2024-01-18T09:17:50.459Z,7.53
2024-01-18T09:20:17.757Z,6.47
2024-01-18T09:22:44.956Z,7.10
2024-01-18T09:25:12.170Z,7.32
2024-01-18T09:27:39.393Z,7.63
2024-01-18T09:30:09.916Z,8.57
2024-01-18T09:32:37.138Z,7.55
2024-01-18T09:35:06.919Z,7.80
2024-01-18T09:37:34.070Z,8.85
2024-01-18T09:40:01.292Z,9.25
2024-01-18T09:42:32.486Z,10.00
2024-01-18T09:45:10.381Z,9.35
2024-01-18T09:47:37.713Z,10.57
2024-01-18T09:50:05.712Z,8.73
2024-01-18T09:52:34.493Z,7.78
2024-01-18T09:55:01.770Z,8.50
2024-01-18T09:57:33.883Z,9.55
2024-01-18T10:00:05.494Z,9.53
2024-01-18T10:02:33.686Z,8.52
2024-01-18T10:05:01.836Z,9.00
2024-01-18T10:07:29.157Z,8.40
2024-01-18T10:09:57.486Z,8.77
2024-01-18T10:12:31.099Z,7.67
2024-01-18T10:14:58.387Z,8.13
2024-01-18T10:17:27.156Z,8.88
2024-01-18T10:19:57.978Z,9.23
2024-01-18T10:22:26.158Z,7.22
2024-01-18T10:24:53.565Z,7.63
2024-01-18T10:27:20.998Z,6.50
2024-01-18T10:29:48.189Z,6.30
2024-01-18T10:32:17.858Z,5.90
2024-01-18T10:34:45.136Z,6.85
2024-01-18T10:37:16.735Z,6.80
2024-01-18T10:39:44.953Z,6.20
2024-01-18T10:42:13.469Z,5.25
2024-01-18T10:44:48.508Z,6.15
2024-01-18T10:47:16.203Z,6.22
2024-01-18T10:49:46.329Z,6.77
2024-01-18T10:52:13.594Z,7.93
2024-01-18T10:54:46.996Z,7.20
2024-01-18T10:57:22.810Z,7.88
2024-01-18T10:59:50.638Z,8.45
2024-01-18T11:02:18.081Z,8.43
2024-01-18T11:04:45.709Z,9.00
2024-01-18T11:07:14.356Z,8.73
2024-01-18T11:09:41.712Z,9.20
2024-01-18T11:12:09.266Z,8.60
2024-01-18T11:14:37.228Z,8.97
2024-01-18T11:17:17.385Z,10.15
2024-01-18T11:19:48.410Z,8.77
2024-01-18T11:22:26.289Z,8.93
2024-01-18T11:25:07.117Z,7.75
2024-01-18T11:27:41.698Z,6.60
2024-01-18T11:30:11.921Z,6.32
2024-01-18T11:32:39.841Z,5.55
2024-01-18T11:35:11.445Z,5.68
2024-01-18T11:37:39.598Z,5.53
2024-01-18T11:40:11.143Z,5.80
2024-01-18T11:42:42.200Z,5.53
2024-01-18T11:45:12.204Z,7.13
2024-01-18T11:47:40.176Z,6.63
2024-01-18T11:50:10.287Z,7.53
2024-01-18T11:52:44.897Z,7.63
2024-01-18T11:55:13.013Z,10.15
2024-01-18T11:57:40.196Z,11.45
2024-01-18T12:00:07.960Z,11.63
2024-01-18T12:02:35.163Z,10.27
2024-01-18T12:05:04.767Z,12.27
2024-01-18T12:07:33.783Z,11.70
2024-01-18T12:10:02.231Z,11.88
2024-01-18T12:12:29.688Z,11.63
2024-01-18T12:15:02.552Z,11.93
2024-01-18T12:17:29.856Z,12.27
2024-01-18T12:19:57.050Z,13.02
2024-01-18T12:22:27.502Z,11.18
2024-01-18T12:24:55.173Z,13.52
2024-01-18T12:27:22.437Z,11.05
2024-01-18T12:29:49.656Z,10.83
2024-01-18T12:32:18.023Z,11.25
2024-01-18T12:34:45.913Z,12.68
2024-01-18T12:37:13.767Z,12.00
2024-01-18T12:39:41.044Z,12.68
2024-01-18T12:42:08.456Z,11.80
2024-01-18T12:44:35.694Z,12.65
2024-01-18T12:47:05.669Z,11.40
2024-01-18T12:49:34.768Z,10.57
2024-01-18T12:52:03.807Z,11.10
2024-01-18T12:54:32.969Z,9.90
2024-01-18T12:57:01.581Z,10.95
2024-01-18T12:59:31.385Z,9.05
2024-01-18T13:01:59.287Z,9.45
2024-01-18T13:04:34.625Z,10.95
2024-01-18T13:07:04.127Z,11.17
2024-01-18T13:09:34.466Z,10.55
2024-01-18T13:12:07.010Z,10.55
2024-01-18T13:14:35.282Z,10.20
2024-01-18T13:17:02.523Z,11.07
2024-01-18T13:19:30.472Z,10.67
2024-01-18T13:21:58.079Z,11.85
2024-01-18T13:24:25.485Z,10.00
2024-01-18T13:26:52.989Z,10.70
2024-01-18T13:29:20.199Z,10.63
2024-01-18T13:31:48.794Z,10.20
2024-01-18T13:34:18.311Z,10.45
2024-01-18T13:36:46.039Z,10.18
2024-01-18T13:39:13.481Z,9.95
2024-01-18T13:41:40.752Z,9.93
2024-01-18T13:44:09.126Z,11.27
2024-01-18T13:46:39.550Z,11.30
2024-01-18T13:49:06.793Z,10.32
2024-01-18T13:51:34.352Z,10.65
2024-01-18T13:54:01.916Z,10.85
2024-01-18T13:56:29.512Z,11.10
2024-01-18T13:58:56.792Z,11.32
2024-01-18T14:01:24.278Z,11.32
2024-01-18T14:03:54.114Z,11.80
2024-01-18T14:06:23.827Z,12.13
2024-01-18T14:08:51.547Z,12.30
2024-01-18T14:11:18.787Z,13.48
2024-01-18T14:13:45.939Z,11.57
2024-01-18T14:16:13.583Z,12.82
2024-01-18T14:18:42.071Z,11.57
2024-01-18T14:21:09.743Z,12.30
2024-01-18T14:23:37.109Z,11.00
2024-01-18T14:26:05.509Z,11.25
2024-01-18T14:28:33.442Z,13.07
2024-01-18T14:31:01.749Z,11.40
2024-01-18T14:33:29.318Z,13.63
2024-01-18T14:35:56.674Z,12.98
2024-01-18T14:38:23.837Z,13.70
2024-01-18T14:40:51.058Z,14.40
2024-01-18T14:43:20.815Z,13.95
2024-01-18T14:45:49.907Z,13.77
2024-01-18T14:48:18.225Z,13.85
2024-01-18T14:50:46.286Z,12.82
2024-01-18T14:53:17.510Z,12.75
2024-01-18T14:55:44.946Z,12.80
2024-01-18T14:58:12.581Z,13.83
2024-01-18T15:00:41.525Z,12.85
2024-01-18T15:03:09.266Z,13.00
2024-01-18T15:05:38.383Z,12.95
2024-01-18T15:08:07.405Z,14.55
2024-01-18T15:10:34.965Z,13.97
2024-01-18T15:13:02.310Z,11.48
2024-01-18T15:15:30.583Z,12.40
2024-01-18T15:17:58.379Z,13.38
2024-01-18T15:20:25.849Z,12.95
2024-01-18T15:22:53.205Z,11.27
2024-01-18T15:25:20.434Z,10.70
2024-01-18T15:27:47.706Z,10.10
2024-01-18T15:30:15.286Z,9.48
2024-01-18T15:32:42.524Z,10.60
2024-01-18T15:35:11.132Z,11.10
2024-01-18T15:37:38.559Z,9.68
2024-01-18T15:40:10.558Z,9.63
2024-01-18T15:42:37.945Z,9.60
2024-01-18T15:45:05.860Z,11.63
2024-01-18T15:47:40.427Z,10.77
2024-01-18T15:50:08.607Z,10.93
2024-01-18T15:52:36.483Z,9.80
2024-01-18T15:55:05.033Z,8.90
2024-01-18T15:57:32.583Z,8.20
2024-01-18T15:59:59.999Z,9.37
2024-01-18T16:02:27.152Z,8.88
2024-01-18T16:04:55.817Z,10.23
2024-01-18T16:07:23.861Z,7.47
2024-01-18T16:09:55.212Z,9.07
2024-01-18T16:12:22.408Z,9.53
2024-01-18T16:14:49.554Z,8.23
2024-01-18T16:17:16.712Z,8.50
2024-01-18T16:19:43.868Z,7.95
2024-01-18T16:22:11.094Z,8.30
2024-01-18T16:24:38.387Z,7.50
2024-01-18T16:27:05.704Z,8.35
2024-01-18T16:29:41.516Z,6.88
2024-01-18T16:32:19.620Z,6.25
2024-01-18T16:34:46.772Z,6.55
2024-01-18T16:37:13.894Z,6.03
2024-01-18T16:39:42.058Z,6.85
2024-01-18T16:42:09.196Z,6.88
2024-01-18T16:44:36.316Z,7.07
2024-01-18T16:47:03.966Z,7.03
2024-01-18T16:49:31.135Z,6.50
2024-01-18T16:51:58.375Z,7.35
2024-01-18T16:54:26.044Z,6.95
2024-01-18T16:56:53.170Z,7.57
2024-01-18T16:59:20.320Z,6.90
2024-01-18T17:01:47.430Z,7.70
2024-01-18T17:04:15.810Z,6.35
2024-01-18T17:06:45.111Z,6.72
2024-01-18T17:09:12.340Z,7.10
2024-01-18T17:11:39.531Z,7.72
2024-01-18T17:14:06.741Z,8.33
2024-01-18T17:16:34.112Z,8.80
2024-01-18T17:19:01.709Z,8.35
2024-01-18T17:21:28.868Z,10.07
2024-01-18T17:23:56.010Z,10.45
2024-01-18T17:26:23.402Z,11.13
2024-01-18T17:28:50.532Z,9.35
2024-01-18T17:31:17.792Z,10.40
2024-01-18T17:33:45.108Z,9.98
2024-01-18T17:36:12.383Z,10.50
2024-01-18T17:38:39.991Z,9.97
2024-01-18T17:41:07.264Z,10.80
2024-01-18T17:43:34.420Z,10.65
2024-01-18T17:46:04.101Z,11.23
2024-01-18T17:48:33.987Z,11.27
2024-01-18T17:51:02.804Z,10.63
2024-01-18T17:53:30.046Z,11.60
2024-01-18T17:55:59.882Z,11.60
2024-01-18T17:58:28.079Z,11.13
2024-01-18T18:00:55.151Z,10.70
2024-01-18T18:03:22.280Z,9.87
2024-01-18T18:05:49.693Z,10.07
2024-01-18T18:08:16.933Z,9.77
2024-01-18T18:10:45.088Z,10.27
2024-01-18T18:13:12.204Z,10.77
2024-01-18T18:15:45.047Z,10.37
2024-01-18T18:18:17.861Z,12.65
2024-01-18T18:20:45.131Z,9.45
2024-01-18T18:23:12.346Z,11.00
2024-01-18T18:25:39.515Z,11.32
2024-01-18T18:28:06.695Z,11.33
2024-01-18T18:30:36.847Z,10.70
2024-01-18T18:33:06.601Z,11.70
2024-01-18T18:35:34.016Z,10.88
2024-01-18T18:38:01.331Z,11.00
2024-01-18T18:40:30.481Z,11.33
2024-01-18T18:42:57.637Z,10.25
2024-01-18T18:45:24.740Z,11.20
2024-01-18T18:47:54.374Z,10.55
2024-01-18T18:50:21.627Z,10.57
2024-01-18T18:52:49.972Z,11.27
2024-01-18T18:55:20.069Z,9.65
2024-01-18T18:57:49.436Z,11.05
2024-01-18T19:00:16.913Z,11.50
2024-01-18T19:02:44.293Z,11.00
2024-01-18T19:05:11.981Z,10.53
2024-01-18T19:07:39.187Z,11.57
2024-01-18T19:10:06.959Z,11.93
2024-01-18T19:12:34.439Z,11.85
2024-01-18T19:15:01.539Z,10.27
2024-01-18T19:17:28.771Z,9.90
2024-01-18T19:19:55.994Z,11.57
2024-01-18T19:22:23.126Z,10.77
2024-01-18T19:24:50.344Z,11.02
2024-01-18T19:27:18.775Z,9.32
2024-01-18T19:29:46.321Z,10.03
2024-01-18T19:32:13.695Z,9.88
2024-01-18T19:34:40.934Z,10.65
2024-01-18T19:37:08.067Z,10.23
2024-01-18T19:39:40.509Z,10.32
2024-01-18T19:42:08.068Z,10.13
2024-01-18T19:44:35.439Z,9.23
2024-01-18T19:47:03.443Z,10.00
2024-01-18T19:49:30.608Z,10.18
2024-01-18T19:51:58.849Z,10.93
2024-01-18T19:54:26.031Z,10.90
2024-01-18T19:56:53.516Z,11.10
2024-01-18T19:59:20.774Z,11.10
2024-01-18T20:01:48.745Z,9.77
2024-01-18T20:04:16.001Z,9.90
2024-01-18T20:06:43.358Z,10.37
2024-01-18T20:09:10.935Z,12.15
2024-01-18T20:11:39.173Z,11.27
2024-01-18T20:14:06.439Z,11.05
2024-01-18T20:16:33.739Z,10.60
2024-01-18T20:19:00.954Z,11.97
2024-01-18T20:21:28.140Z,11.13
2024-01-18T20:23:55.637Z,10.15
2024-01-18T20:26:22.935Z,10.45
2024-01-18T20:28:51.405Z,11.00
2024-01-18T20:31:19.050Z,11.53
2024-01-18T20:33:46.982Z,11.90
2024-01-18T20:36:15.149Z,11.63
2024-01-18T20:38:43.231Z,12.50
2024-01-18T20:41:11.439Z,12.48
2024-01-18T20:43:38.687Z,11.80
2024-01-18T20:46:05.809Z,13.00
2024-01-18T20:48:32.996Z,11.27
2024-01-18T20:51:00.305Z,11.35
2024-01-18T20:53:28.160Z,10.30
2024-01-18T20:55:55.318Z,11.20
2024-01-18T20:58:22.800Z,12.18
2024-01-18T21:00:50.032Z,12.05
2024-01-18T21:03:17.208Z,11.20
2024-01-18T21:05:44.476Z,11.82
2024-01-18T21:08:11.699Z,10.57
2024-01-18T21:10:38.835Z,11.68
2024-01-18T21:13:06.009Z,11.70
2024-01-18T21:15:33.230Z,12.02
2024-01-18T21:18:00.426Z,11.07
2024-01-18T21:20:27.676Z,11.03
2024-01-18T21:22:54.947Z,10.43
2024-01-18T21:25:22.199Z,10.50
2024-01-18T21:27:49.440Z,10.00
2024-01-18T21:30:16.658Z,9.77
2024-01-18T21:32:44.203Z,10.43
2024-01-18T21:35:11.405Z,10.10
2024-01-18T21:37:38.649Z,10.77
2024-01-18T21:40:06.363Z,9.75
2024-01-18T21:42:33.653Z,9.68
2024-01-18T21:45:00.972Z,10.70
2024-01-18T21:47:28.215Z,9.57
2024-01-18T21:49:55.456Z,8.90
2024-01-18T21:52:22.849Z,9.77
2024-01-18T21:54:51.454Z,9.07
2024-01-18T21:57:19.062Z,10.27
2024-01-18T21:59:46.310Z,9.82
2024-01-18T22:02:13.848Z,8.95
2024-01-18T22:04:41.405Z,9.45
2024-01-18T22:07:09.466Z,8.30
2024-01-18T22:09:41.971Z,9.97
2024-01-18T22:12:11.804Z,9.95
2024-01-18T22:14:39.603Z,9.10
2024-01-18T22:17:07.124Z,10.35
2024-01-18T22:19:43.565Z,8.52
2024-01-18T22:22:19.121Z,10.00
2024-01-18T22:24:46.594Z,9.70
2024-01-18T22:27:13.721Z,10.23
2024-01-18T22:29:43.326Z,9.95
2024-01-18T22:32:16.235Z,10.32
2024-01-18T22:34:43.462Z,8.10
2024-01-18T22:37:10.542Z,10.15
2024-01-18T22:39:37.663Z,9.30
2024-01-18T22:42:04.815Z,10.23
2024-01-18T22:44:32.102Z,9.60
2024-01-18T22:46:59.237Z,9.43
2024-01-18T22:49:26.975Z,9.75
2024-01-18T22:51:54.261Z,9.32
2024-01-18T22:54:21.412Z,9.27
2024-01-18T22:56:48.644Z,9.98
2024-01-18T22:59:15.740Z,8.73
2024-01-18T23:01:43.625Z,9.05
2024-01-18T23:04:14.904Z,8.40
2024-01-18T23:06:42.948Z,8.63
2024-01-18T23:09:11.649Z,9.27
2024-01-18T23:11:38.892Z,8.47
2024-01-18T23:14:06.002Z,8.50
2024-01-18T23:16:33.254Z,9.48
2024-01-18T23:19:00.379Z,8.65
2024-01-18T23:21:27.539Z,8.55
2024-01-18T23:23:54.737Z,8.73
2024-01-18T23:26:21.907Z,8.25
2024-01-18T23:28:49.220Z,9.00
2024-01-18T23:31:16.543Z,8.13
2024-01-18T23:33:43.753Z,8.70
2024-01-18T23:36:11.938Z,8.30
2024-01-18T23:38:39.567Z,8.57
2024-01-18T23:41:06.781Z,8.18
2024-01-18T23:43:33.876Z,5.55
2024-01-18T23:46:02.178Z,5.53
2024-01-18T23:48:29.299Z,6.33
2024-01-18T23:50:56.403Z,6.88
2024-01-18T23:53:23.588Z,6.30
2024-01-18T23:55:50.710Z,5.68
2024-01-18T23:58:17.800Z,5.55
